createdAt,value
2018-06-20T00:00:26.182Z,6.60
2018-06-20T00:01:26.116Z,6.10
2018-06-20T00:02:26.056Z,6.20
2018-06-20T00:03:26.006Z,6.80
2018-06-20T00:04:25.951Z,5.90
2018-06-20T00:05:25.878Z,6.00
2018-06-20T00:06:25.822Z,6.30
2018-06-20T00:07:25.789Z,6.50
2018-06-20T00:08:25.698Z,6.50
2018-06-20T00:09:25.637Z,6.10
2018-06-20T00:10:25.579Z,6.30
2018-06-20T00:11:25.531Z,6.40
2018-06-20T00:12:25.458Z,6.40
2018-06-20T00:13:25.399Z,6.30
2018-06-20T00:14:25.336Z,6.00
2018-06-20T00:15:25.280Z,6.10
2018-06-20T00:16:25.230Z,6.10
2018-06-20T00:17:25.158Z,6.80
2018-06-20T00:18:25.100Z,5.80
2018-06-20T00:19:25.051Z,6.20
2018-06-20T00:20:24.979Z,6.00
2018-06-20T00:21:24.919Z,5.70
2018-06-20T00:22:24.861Z,6.10
2018-06-20T00:23:24.806Z,6.20
2018-06-20T00:24:24.743Z,6.20
2018-06-20T00:25:24.686Z,6.00
2018-06-20T00:26:24.622Z,5.90
2018-06-20T00:27:24.562Z,6.00
2018-06-20T00:28:24.503Z,5.80
2018-06-20T00:29:24.448Z,6.20
2018-06-20T00:30:24.389Z,5.80
2018-06-20T00:31:24.328Z,5.80
2018-06-20T00:32:24.267Z,6.40
2018-06-20T00:33:24.214Z,6.00
2018-06-20T00:34:24.149Z,6.20
2018-06-20T00:35:24.089Z,6.10
2018-06-20T00:36:24.028Z,6.10
2018-06-20T00:37:23.972Z,5.90
2018-06-20T00:38:23.909Z,5.90
2018-06-20T00:39:23.850Z,6.00
2018-06-20T00:40:23.791Z,6.00
2018-06-20T00:41:23.728Z,6.10
2018-06-20T00:42:23.678Z,6.20
2018-06-20T00:43:23.614Z,6.60
2018-06-20T00:44:23.556Z,6.20
2018-06-20T00:45:23.496Z,6.70
2018-06-20T00:46:23.439Z,6.30
2018-06-20T00:47:23.378Z,6.50
2018-06-20T00:48:23.323Z,6.70
2018-06-20T00:49:23.253Z,7.50
2018-06-20T00:50:23.195Z,6.60
2018-06-20T00:51:23.141Z,6.70
2018-06-20T00:52:23.084Z,6.80
2018-06-20T00:53:23.019Z,6.90
2018-06-20T00:54:22.968Z,6.70
2018-06-20T00:55:22.902Z,6.90
2018-06-20T00:56:22.840Z,6.70
2018-06-20T00:57:22.780Z,6.70
2018-06-20T00:58:22.729Z,7.30
2018-06-20T00:59:22.661Z,6.60
2018-06-20T01:00:22.609Z,7.00
2018-06-20T01:01:22.543Z,7.20
2018-06-20T01:02:22.483Z,7.20
2018-06-20T01:03:22.422Z,7.30
2018-06-20T01:04:22.367Z,7.10
2018-06-20T01:05:22.305Z,7.60
2018-06-20T01:06:22.245Z,7.30
2018-06-20T01:07:22.185Z,6.30
2018-06-20T01:08:22.134Z,8.00
2018-06-20T01:09:22.063Z,8.00
2018-06-20T01:10:22.004Z,7.90
2018-06-20T01:11:21.944Z,23.90
2018-06-20T01:12:21.886Z,47.20
2018-06-20T01:13:21.836Z,32.60
2018-06-20T01:14:21.765Z,17.10
2018-06-20T01:15:21.705Z,7.30
2018-06-20T01:16:21.648Z,7.90
2018-06-20T01:17:21.594Z,7.80
2018-06-20T01:18:21.527Z,8.20
2018-06-20T01:19:21.466Z,7.50
2018-06-20T01:20:21.410Z,7.20
2018-06-20T01:21:21.355Z,7.50
2018-06-20T01:22:21.297Z,9.30
2018-06-20T01:23:21.229Z,7.50
2018-06-20T01:24:21.171Z,10.20
2018-06-20T01:25:21.112Z,8.30
2018-06-20T01:26:21.047Z,7.20
2018-06-20T01:27:20.990Z,9.60
2018-06-20T01:28:20.932Z,10.50
2018-06-20T01:29:20.869Z,16.50
2018-06-20T01:30:20.810Z,19.80
2018-06-20T01:31:20.748Z,12.60
2018-06-20T01:32:20.691Z,14.50
2018-06-20T01:33:20.627Z,21.40
2018-06-20T01:34:20.569Z,17.90
2018-06-20T01:35:20.509Z,18.30
2018-06-20T01:36:20.449Z,22.80
2018-06-20T01:37:20.391Z,25.60
2018-06-20T01:38:20.331Z,19.00
2018-06-20T01:39:20.266Z,16.90
2018-06-20T01:40:20.208Z,15.30
2018-06-20T01:41:20.148Z,21.60
2018-06-20T01:42:20.087Z,15.50
2018-06-20T01:43:20.033Z,12.20
2018-06-20T01:44:19.967Z,17.50
2018-06-20T01:45:19.907Z,13.90
2018-06-20T01:46:19.850Z,10.30
2018-06-20T01:47:19.796Z,12.90
2018-06-20T01:48:19.734Z,13.00
2018-06-20T01:49:19.671Z,13.20
2018-06-20T01:50:19.602Z,12.20
2018-06-20T01:51:19.555Z,9.40
2018-06-20T01:52:19.493Z,17.40
2018-06-20T01:53:19.427Z,18.80
2018-06-20T01:54:19.369Z,29.50
2018-06-20T01:55:19.309Z,23.70
2018-06-20T01:56:19.249Z,22.70
2018-06-20T01:57:19.189Z,31.60
2018-06-20T01:58:19.128Z,30.40
2018-06-20T01:59:19.070Z,37.30
2018-06-20T02:00:19.008Z,29.90
2018-06-20T02:01:18.948Z,18.90
2018-06-20T02:02:18.887Z,12.50
2018-06-20T02:03:18.829Z,27.50
2018-06-20T02:04:18.780Z,23.50
2018-06-20T02:05:18.711Z,9.80
2018-06-20T02:06:18.650Z,29.90
2018-06-20T02:07:18.586Z,14.80
2018-06-20T02:08:18.534Z,15.10
2018-06-20T02:09:18.469Z,9.10
2018-06-20T02:10:18.404Z,8.20
2018-06-20T02:11:18.346Z,17.00
2018-06-20T02:12:18.291Z,10.10
2018-06-20T02:13:18.228Z,8.60
2018-06-20T02:14:18.173Z,7.90
2018-06-20T02:15:18.107Z,7.80
2018-06-20T02:16:18.049Z,9.40
2018-06-20T02:17:17.992Z,10.20
2018-06-20T02:18:17.932Z,8.00
2018-06-20T02:19:17.869Z,7.30
2018-06-20T02:20:17.813Z,7.50
2018-06-20T02:21:17.754Z,7.40
2018-06-20T02:22:17.686Z,7.90
2018-06-20T02:23:17.633Z,8.60
2018-06-20T02:24:17.570Z,8.20
2018-06-20T02:25:17.508Z,7.80
2018-06-20T02:26:17.450Z,8.60
2018-06-20T02:27:17.388Z,9.10
2018-06-20T02:28:17.332Z,9.40
2018-06-20T02:29:17.270Z,8.00
2018-06-20T02:30:17.221Z,21.80
2018-06-20T02:31:17.157Z,20.40
2018-06-20T02:32:17.097Z,8.70
2018-06-20T02:33:17.033Z,18.00
2018-06-20T02:34:16.970Z,10.10
2018-06-20T02:35:16.914Z,16.40
2018-06-20T02:36:16.851Z,12.30
2018-06-20T02:37:16.790Z,8.40
2018-06-20T02:38:16.741Z,8.70
2018-06-20T02:39:16.677Z,7.60
2018-06-20T02:40:16.619Z,7.20
2018-06-20T02:41:16.556Z,7.10
2018-06-20T02:42:16.495Z,7.50
2018-06-20T02:43:16.447Z,7.90
2018-06-20T02:44:16.380Z,8.20
2018-06-20T02:45:16.318Z,30.10
2018-06-20T02:46:16.253Z,34.90
2018-06-20T02:47:16.197Z,13.70
2018-06-20T02:48:16.140Z,19.80
2018-06-20T02:49:16.071Z,14.20
2018-06-20T02:50:16.019Z,8.70
2018-06-20T02:51:15.962Z,16.00
2018-06-20T02:52:15.899Z,14.80
2018-06-20T02:53:15.848Z,26.90
2018-06-20T02:54:15.775Z,14.10
2018-06-20T02:55:15.717Z,23.90
2018-06-20T02:56:15.657Z,22.10
2018-06-20T02:57:15.597Z,9.70
2018-06-20T02:58:15.540Z,12.00
2018-06-20T02:59:15.481Z,12.20
2018-06-20T03:00:15.416Z,11.50
2018-06-20T03:01:15.358Z,12.20
2018-06-20T03:02:15.316Z,10.40
2018-06-20T03:03:15.263Z,8.50
2018-06-20T03:04:15.183Z,8.80
2018-06-20T03:05:15.143Z,8.30
2018-06-20T03:06:15.069Z,8.80
2018-06-20T03:07:15.015Z,9.00
2018-06-20T03:08:14.954Z,9.10
2018-06-20T03:09:14.895Z,12.90
2018-06-20T03:10:14.831Z,21.90
2018-06-20T03:11:14.770Z,22.10
2018-06-20T03:12:14.708Z,26.70
2018-06-20T03:13:14.647Z,23.40
2018-06-20T03:14:14.582Z,17.50
2018-06-20T03:15:14.527Z,9.10
2018-06-20T03:16:14.462Z,9.20
2018-06-20T03:17:14.401Z,8.70
2018-06-20T03:18:14.340Z,9.10
2018-06-20T03:19:14.281Z,9.50
2018-06-20T03:20:14.226Z,9.90
2018-06-20T03:21:14.162Z,10.00
2018-06-20T03:22:14.110Z,9.00
2018-06-20T03:23:14.049Z,9.30
2018-06-20T03:24:13.987Z,9.30
2018-06-20T03:25:13.928Z,8.90
2018-06-20T03:26:13.864Z,9.20
2018-06-20T03:27:13.861Z,8.70
2018-06-20T03:28:13.745Z,8.60
2018-06-20T03:29:13.685Z,9.00
2018-06-20T03:30:13.629Z,10.40
2018-06-20T03:31:13.565Z,8.60
2018-06-20T03:32:13.507Z,9.00
2018-06-20T03:33:13.447Z,8.60
2018-06-20T03:34:13.397Z,8.10
2018-06-20T03:35:13.332Z,8.00
2018-06-20T03:36:13.275Z,8.40
2018-06-20T03:37:13.207Z,8.40
2018-06-20T03:38:13.146Z,8.80
2018-06-20T03:39:13.090Z,8.50
2018-06-20T03:40:13.032Z,9.00
2018-06-20T03:41:12.966Z,8.80
2018-06-20T03:42:12.917Z,8.70
2018-06-20T03:43:12.860Z,9.10
2018-06-20T03:44:12.794Z,9.20
2018-06-20T03:45:12.737Z,9.00
2018-06-20T03:46:12.700Z,8.80
2018-06-20T03:47:12.616Z,9.30
2018-06-20T03:48:12.557Z,7.40
2018-06-20T03:49:12.513Z,7.70
2018-06-20T03:50:12.434Z,7.90
2018-06-20T03:51:12.392Z,7.80
2018-06-20T03:52:12.331Z,7.40
2018-06-20T03:53:12.259Z,8.10
2018-06-20T03:54:12.235Z,7.70
2018-06-20T03:55:12.142Z,7.70
2018-06-20T03:56:12.082Z,7.90
2018-06-20T03:57:12.036Z,8.10
2018-06-20T03:58:11.971Z,7.80
2018-06-20T03:59:11.909Z,8.50
2018-06-20T04:00:11.871Z,7.70
2018-06-20T04:01:11.786Z,7.70
2018-06-20T04:02:11.790Z,7.70
2018-06-20T04:03:11.672Z,7.70
2018-06-20T04:04:11.611Z,6.90
2018-06-20T04:05:11.556Z,7.60
2018-06-20T04:06:11.487Z,7.30
2018-06-20T04:07:11.428Z,7.10
2018-06-20T04:08:11.372Z,7.30
2018-06-20T04:09:11.312Z,6.80
2018-06-20T04:10:11.254Z,7.20
2018-06-20T04:11:11.215Z,6.90
2018-06-20T04:12:11.134Z,7.00
2018-06-20T04:13:11.071Z,7.10
2018-06-20T04:14:11.018Z,7.30
2018-06-20T04:15:10.961Z,7.00
2018-06-20T04:16:10.899Z,7.40
2018-06-20T04:17:10.839Z,7.40
2018-06-20T04:18:10.797Z,7.20
2018-06-20T04:19:10.718Z,7.20
2018-06-20T04:20:10.661Z,6.90
2018-06-20T04:21:10.605Z,7.70
2018-06-20T04:22:10.542Z,7.30
2018-06-20T04:23:10.481Z,7.30
2018-06-20T04:24:10.423Z,7.40
2018-06-20T04:25:10.362Z,7.70
2018-06-20T04:26:10.307Z,7.10
2018-06-20T04:27:10.249Z,7.30
2018-06-20T04:28:10.194Z,8.10
2018-06-20T04:29:10.133Z,7.60
2018-06-20T04:30:10.064Z,7.20
2018-06-20T04:31:10.006Z,8.00
2018-06-20T04:32:09.950Z,7.90
2018-06-20T04:33:09.888Z,7.40
2018-06-20T04:34:09.835Z,8.00
2018-06-20T04:35:09.787Z,7.60
2018-06-20T04:36:09.710Z,7.90
2018-06-20T04:37:09.656Z,8.70
2018-06-20T04:38:09.597Z,7.80
2018-06-20T04:39:09.543Z,7.80
2018-06-20T04:40:09.478Z,7.20
2018-06-20T04:41:09.422Z,6.90
2018-06-20T04:42:09.358Z,6.60
2018-06-20T04:43:09.309Z,7.00
2018-06-20T04:44:09.240Z,7.20
2018-06-20T04:45:09.182Z,7.20
2018-06-20T04:46:09.127Z,7.10
2018-06-20T04:47:09.099Z,7.20
2018-06-20T04:48:09.013Z,7.70
2018-06-20T04:49:08.948Z,7.90
2018-06-20T04:50:08.889Z,7.60
2018-06-20T04:51:08.829Z,7.60
2018-06-20T04:52:08.774Z,7.70
2018-06-20T04:53:08.713Z,7.90
2018-06-20T04:54:08.655Z,7.20
2018-06-20T04:55:08.596Z,7.20
2018-06-20T04:56:08.536Z,7.40
2018-06-20T04:57:08.478Z,7.10
2018-06-20T04:58:08.419Z,7.10
2018-06-20T04:59:08.369Z,7.50
2018-06-20T05:00:08.303Z,6.70
2018-06-20T05:01:08.247Z,7.40
2018-06-20T05:02:08.187Z,7.30
2018-06-20T05:03:08.122Z,6.60
2018-06-20T05:04:08.069Z,7.50
2018-06-20T05:05:08.029Z,7.70
2018-06-20T05:06:07.950Z,7.00
2018-06-20T05:07:07.899Z,7.00
2018-06-20T05:08:07.831Z,7.30
2018-06-20T05:09:07.776Z,7.60
2018-06-20T05:10:07.723Z,7.60
2018-06-20T05:11:07.657Z,7.60
2018-06-20T05:12:07.607Z,8.00
2018-06-20T05:13:07.543Z,7.70
2018-06-20T05:14:07.478Z,8.80
2018-06-20T05:15:07.420Z,8.80
2018-06-20T05:16:07.378Z,7.90
2018-06-20T05:17:07.302Z,8.10
2018-06-20T05:18:07.245Z,9.20
2018-06-20T05:19:07.189Z,8.30
2018-06-20T05:20:07.128Z,7.50
2018-06-20T05:21:07.072Z,7.10
2018-06-20T05:22:07.008Z,6.70
2018-06-20T05:23:06.951Z,7.00
2018-06-20T05:24:06.897Z,6.70
2018-06-20T05:25:06.835Z,6.70
2018-06-20T05:26:06.776Z,6.50
2018-06-20T05:27:06.730Z,6.80
2018-06-20T05:28:06.657Z,7.00
2018-06-20T05:29:06.608Z,5.90
2018-06-20T05:30:06.541Z,5.80
2018-06-20T05:31:06.485Z,6.00
2018-06-20T05:32:06.431Z,6.50
2018-06-20T05:33:06.371Z,6.70
2018-06-20T05:34:06.311Z,8.20
2018-06-20T05:35:06.246Z,7.40
2018-06-20T05:36:06.195Z,8.40
2018-06-20T05:37:06.129Z,7.80
2018-06-20T05:38:06.090Z,7.20
2018-06-20T05:39:06.013Z,7.60
2018-06-20T05:40:05.953Z,7.50
2018-06-20T05:41:05.898Z,6.80
2018-06-20T05:42:05.842Z,6.50
2018-06-20T05:43:05.788Z,9.50
2018-06-20T05:44:05.726Z,7.50
2018-06-20T05:45:05.668Z,7.20
2018-06-20T05:46:05.610Z,7.40
2018-06-20T05:47:05.550Z,7.00
2018-06-20T05:48:05.489Z,7.60
2018-06-20T05:49:05.432Z,7.50
2018-06-20T05:50:05.378Z,8.10
2018-06-20T05:51:05.316Z,7.80
2018-06-20T05:52:05.270Z,7.50
2018-06-20T05:53:05.242Z,7.30
2018-06-20T05:54:05.149Z,7.60
2018-06-20T05:55:05.084Z,7.70
2018-06-20T05:56:05.028Z,7.50
2018-06-20T05:57:04.968Z,6.90
2018-06-20T05:58:04.910Z,8.70
2018-06-20T05:59:04.859Z,8.30
2018-06-20T06:00:04.794Z,7.70
2018-06-20T06:01:04.738Z,6.90
2018-06-20T06:02:04.681Z,7.70
2018-06-20T06:03:04.632Z,7.50
2018-06-20T06:04:04.567Z,8.00
2018-06-20T06:05:04.505Z,8.30
2018-06-20T06:06:04.447Z,8.10
2018-06-20T06:07:04.387Z,8.50
2018-06-20T06:08:04.327Z,8.20
2018-06-20T06:09:04.283Z,7.60
2018-06-20T06:10:04.236Z,8.40
2018-06-20T06:11:04.170Z,7.80
2018-06-20T06:12:04.117Z,8.80
2018-06-20T06:13:04.046Z,8.30
2018-06-20T06:14:03.982Z,8.20
2018-06-20T06:15:03.932Z,8.80
2018-06-20T06:16:03.876Z,8.30
2018-06-20T06:17:03.919Z,8.10
2018-06-20T06:18:03.758Z,7.40
2018-06-20T06:19:03.694Z,8.20
2018-06-20T06:20:03.642Z,8.60
2018-06-20T06:21:03.586Z,7.90
2018-06-20T06:22:03.527Z,8.30
2018-06-20T06:23:03.470Z,9.50
2018-06-20T06:24:03.418Z,9.60
2018-06-20T06:25:03.355Z,8.70
2018-06-20T06:26:03.294Z,8.20
2018-06-20T06:27:03.234Z,8.40
2018-06-20T06:28:03.183Z,7.20
2018-06-20T06:29:03.151Z,8.30
2018-06-20T06:30:03.127Z,8.90
2018-06-20T06:31:03.019Z,7.90
2018-06-20T06:32:02.954Z,7.50
2018-06-20T06:33:02.896Z,8.00
2018-06-20T06:34:02.837Z,7.30
2018-06-20T06:35:02.781Z,7.80
2018-06-20T06:36:02.727Z,7.60
2018-06-20T06:37:02.671Z,8.10
2018-06-20T06:38:02.621Z,8.40
2018-06-20T06:39:02.549Z,8.30
2018-06-20T06:40:02.715Z,8.60
2018-06-20T06:41:02.449Z,8.10
2018-06-20T06:42:02.378Z,8.30
2018-06-20T06:43:02.329Z,8.40
2018-06-20T06:44:02.306Z,8.80
2018-06-20T06:45:02.216Z,9.00
2018-06-20T06:46:02.162Z,8.50
2018-06-20T06:47:02.101Z,8.70
2018-06-20T06:48:02.066Z,8.90
2018-06-20T06:49:01.981Z,9.00
2018-06-20T06:50:01.939Z,9.40
2018-06-20T06:51:01.908Z,8.70
2018-06-20T06:52:01.825Z,8.40
2018-06-20T06:53:01.780Z,8.70
2018-06-20T06:54:01.700Z,8.70
2018-06-20T06:55:01.643Z,8.90
2018-06-20T06:56:01.616Z,8.50
2018-06-20T06:57:01.536Z,8.00
2018-06-20T06:58:01.476Z,8.50
2018-06-20T06:59:01.450Z,8.90
2018-06-20T07:00:01.366Z,8.10
2018-06-20T07:01:01.315Z,7.90
2018-06-20T07:02:01.247Z,7.50
2018-06-20T07:03:01.188Z,7.40
2018-06-20T07:04:01.138Z,7.30
2018-06-20T07:05:01.090Z,7.50
2018-06-20T07:06:01.022Z,7.20
2018-06-20T07:07:00.969Z,7.40
2018-06-20T07:08:00.914Z,7.10
2018-06-20T07:09:00.862Z,7.20
2018-06-20T07:10:00.799Z,7.40
2018-06-20T07:11:00.765Z,7.60
2018-06-20T07:12:00.695Z,8.10
2018-06-20T07:13:00.628Z,7.50
2018-06-20T07:14:00.574Z,7.90
2018-06-20T07:15:00.525Z,7.40
2018-06-20T07:16:00.462Z,7.60
2018-06-20T07:17:00.402Z,7.00
2018-06-20T07:18:00.350Z,8.20
2018-06-20T07:19:00.301Z,7.80
2018-06-20T07:20:00.239Z,8.00
2018-06-20T07:21:00.182Z,7.90
2018-06-20T07:22:00.123Z,7.60
2018-06-20T07:23:00.065Z,8.10
2018-06-20T07:24:00.030Z,7.40
2018-06-20T07:24:59.964Z,7.70
2018-06-20T07:25:59.913Z,6.30
2018-06-20T07:26:59.865Z,6.70
2018-06-20T07:27:59.793Z,6.40
2018-06-20T07:28:59.757Z,6.40
2018-06-20T07:29:59.745Z,5.60
2018-06-20T07:30:59.628Z,5.90
2018-06-20T07:31:59.581Z,5.90
2018-06-20T07:32:59.513Z,6.20
2018-06-20T07:33:59.461Z,6.20
2018-06-20T07:34:59.402Z,5.60
2018-06-20T07:35:59.429Z,5.80
2018-06-20T07:36:59.334Z,6.40
2018-06-20T07:37:59.248Z,6.00
2018-06-20T07:38:59.182Z,5.70
2018-06-20T07:39:59.136Z,5.40
2018-06-20T07:40:59.069Z,6.00
2018-06-20T07:41:59.011Z,5.40
2018-06-20T07:42:58.953Z,5.80
2018-06-20T07:43:58.896Z,5.50
2018-06-20T07:44:58.884Z,5.80
2018-06-20T07:45:58.793Z,5.60
2018-06-20T07:46:58.738Z,5.50
2018-06-20T07:47:58.741Z,6.10
2018-06-20T07:48:58.622Z,6.50
2018-06-20T07:49:58.570Z,6.70
2018-06-20T07:50:58.520Z,6.50
2018-06-20T07:51:58.459Z,6.10
2018-06-20T07:52:58.403Z,7.40
2018-06-20T07:53:58.353Z,6.20
2018-06-20T07:54:58.304Z,6.10
2018-06-20T07:55:58.240Z,6.60
2018-06-20T07:56:58.180Z,7.10
2018-06-20T07:57:58.134Z,6.40
2018-06-20T07:58:58.089Z,7.10
2018-06-20T07:59:58.029Z,6.00
2018-06-20T08:00:58.225Z,6.10
2018-06-20T08:01:57.907Z,6.10
2018-06-20T08:02:57.855Z,6.40
2018-06-20T08:03:57.804Z,6.70
2018-06-20T08:04:57.773Z,7.00
2018-06-20T08:05:57.697Z,6.90
2018-06-20T08:06:57.644Z,7.30
2018-06-20T08:07:57.582Z,7.30
2018-06-20T08:08:57.525Z,7.00
2018-06-20T08:09:57.477Z,8.00
2018-06-20T08:10:57.420Z,7.80
2018-06-20T08:11:57.362Z,7.50
2018-06-20T08:12:57.310Z,7.60
2018-06-20T08:13:57.283Z,7.50
2018-06-20T08:14:57.216Z,9.10
2018-06-20T08:15:57.155Z,8.20
2018-06-20T08:16:57.091Z,8.80
2018-06-20T08:17:57.046Z,7.60
2018-06-20T08:18:57.052Z,9.20
2018-06-20T08:19:56.926Z,9.20
2018-06-20T08:20:56.873Z,9.40
2018-06-20T08:21:56.816Z,8.40
2018-06-20T08:22:56.766Z,8.10
2018-06-20T08:23:56.712Z,7.60
2018-06-20T08:24:56.666Z,8.60
2018-06-20T08:25:56.603Z,7.70
2018-06-20T08:26:56.546Z,8.00
2018-06-20T08:27:56.494Z,7.60
2018-06-20T08:28:56.438Z,8.20
2018-06-20T08:29:56.380Z,7.60
2018-06-20T08:30:56.328Z,7.30
2018-06-20T08:31:56.271Z,7.80
2018-06-20T08:32:56.217Z,7.70
2018-06-20T08:33:56.167Z,7.40
2018-06-20T08:34:56.118Z,7.00
2018-06-20T08:35:56.068Z,7.60
2018-06-20T08:36:56.005Z,7.40
2018-06-20T08:37:55.951Z,7.30
2018-06-20T08:38:55.901Z,7.60
2018-06-20T08:39:55.843Z,7.40
2018-06-20T08:40:55.790Z,60.20
2018-06-20T08:41:55.729Z,16.90
2018-06-20T08:42:55.677Z,7.40
2018-06-20T08:43:55.623Z,7.20
2018-06-20T08:44:55.568Z,7.10
2018-06-20T08:45:55.521Z,6.80
2018-06-20T08:46:55.464Z,7.30
2018-06-20T08:47:55.409Z,7.90
2018-06-20T08:48:55.355Z,7.90
2018-06-20T08:49:55.309Z,7.40
2018-06-20T08:50:55.253Z,7.40
2018-06-20T08:51:55.243Z,7.70
2018-06-20T08:52:55.146Z,7.80
2018-06-20T08:53:55.085Z,7.10
2018-06-20T08:54:55.033Z,8.00
2018-06-20T08:55:55.029Z,8.10
2018-06-20T08:56:54.949Z,8.50
2018-06-20T08:57:54.880Z,8.90
2018-06-20T08:58:54.822Z,8.90
2018-06-20T08:59:54.805Z,7.90
2018-06-20T09:00:54.709Z,8.20
2018-06-20T09:01:54.655Z,9.10
2018-06-20T09:02:54.612Z,8.20
2018-06-20T09:03:54.545Z,8.20
2018-06-20T09:04:54.503Z,8.50
2018-06-20T09:05:54.445Z,8.00
2018-06-20T09:06:54.396Z,9.50
2018-06-20T09:07:54.332Z,8.80
2018-06-20T09:08:54.282Z,13.40
2018-06-20T09:09:54.227Z,9.00
2018-06-20T09:10:54.180Z,10.10
2018-06-20T09:11:54.131Z,9.20
2018-06-20T09:12:54.070Z,9.30
2018-06-20T09:13:54.009Z,10.20
2018-06-20T09:14:54.017Z,10.10
2018-06-20T09:15:53.913Z,8.90
2018-06-20T09:16:53.873Z,10.10
2018-06-20T09:17:53.803Z,9.80
2018-06-20T09:18:53.751Z,9.50
2018-06-20T09:19:53.694Z,10.60
2018-06-20T09:20:53.636Z,11.90
2018-06-20T09:21:53.607Z,11.10
2018-06-20T09:22:53.534Z,11.00
2018-06-20T09:23:53.499Z,10.60
2018-06-20T09:24:53.425Z,10.60
2018-06-20T09:25:53.372Z,11.40
2018-06-20T09:26:53.318Z,10.70
2018-06-20T09:27:53.264Z,10.20
2018-06-20T09:28:53.216Z,10.60
2018-06-20T09:29:53.163Z,10.80
2018-06-20T09:30:53.111Z,10.90
2018-06-20T09:31:53.053Z,10.90
2018-06-20T09:32:52.994Z,11.10
2018-06-20T09:33:52.938Z,11.30
2018-06-20T09:34:52.891Z,10.60
2018-06-20T09:35:52.832Z,10.80
2018-06-20T09:36:52.781Z,11.30
2018-06-20T09:37:52.731Z,11.50
2018-06-20T09:38:52.680Z,12.40
2018-06-20T09:39:52.627Z,12.10
2018-06-20T09:40:52.581Z,12.00
2018-06-20T09:41:52.527Z,12.30
2018-06-20T09:42:52.467Z,12.20
2018-06-20T09:43:52.413Z,12.50
2018-06-20T09:44:52.357Z,11.00
2018-06-20T09:45:52.306Z,11.40
2018-06-20T09:46:52.250Z,10.70
2018-06-20T09:47:52.197Z,10.80
2018-06-20T09:48:52.159Z,11.60
2018-06-20T09:49:52.089Z,11.90
2018-06-20T09:50:52.040Z,11.10
2018-06-20T09:51:51.984Z,11.20
2018-06-20T09:52:51.932Z,11.50
2018-06-20T09:53:51.874Z,11.50
2018-06-20T09:54:51.823Z,13.10
2018-06-20T09:55:51.778Z,11.60
2018-06-20T09:56:51.725Z,11.90
2018-06-20T09:57:51.674Z,11.10
2018-06-20T09:58:51.611Z,10.40
2018-06-20T09:59:51.560Z,11.30
2018-06-20T10:00:51.510Z,11.20
2018-06-20T10:01:51.453Z,10.80
2018-06-20T10:02:51.404Z,10.50
2018-06-20T10:03:51.349Z,10.00
2018-06-20T10:04:51.292Z,9.80
2018-06-20T10:05:51.237Z,10.70
2018-06-20T10:06:51.226Z,10.40
2018-06-20T10:07:51.134Z,11.20
2018-06-20T10:08:51.078Z,11.00
2018-06-20T10:09:51.027Z,11.20
2018-06-20T10:10:50.973Z,10.90
2018-06-20T10:11:50.919Z,13.00
2018-06-20T10:12:50.862Z,14.30
2018-06-20T10:13:50.812Z,10.70
2018-06-20T10:14:50.767Z,11.20
2018-06-20T10:15:50.716Z,11.70
2018-06-20T10:16:50.652Z,11.70
2018-06-20T10:17:50.598Z,10.50
2018-06-20T10:18:50.545Z,10.80
2018-06-20T10:19:50.499Z,10.70
2018-06-20T10:20:50.443Z,11.20
2018-06-20T10:21:50.387Z,11.00
2018-06-20T10:22:50.331Z,10.50
2018-06-20T10:23:50.278Z,11.60
2018-06-20T10:24:50.225Z,11.00
2018-06-20T10:25:50.171Z,11.80
2018-06-20T10:26:50.117Z,11.70
2018-06-20T10:27:50.063Z,11.00
2018-06-20T10:28:50.012Z,10.60
2018-06-20T10:29:49.949Z,11.20
2018-06-20T10:30:49.907Z,10.60
2018-06-20T10:31:49.852Z,10.70
2018-06-20T10:32:49.790Z,11.20
2018-06-20T10:33:49.745Z,11.70
2018-06-20T10:34:49.691Z,11.20
2018-06-20T10:35:49.634Z,10.30
2018-06-20T10:36:49.584Z,11.20
2018-06-20T10:37:49.536Z,11.30
2018-06-20T10:38:49.474Z,10.70
2018-06-20T10:39:49.428Z,10.90
2018-06-20T10:40:49.373Z,11.30
2018-06-20T10:41:49.318Z,11.20
2018-06-20T10:42:49.266Z,11.10
2018-06-20T10:43:49.332Z,11.40
2018-06-20T10:44:49.157Z,10.10
2018-06-20T10:45:49.112Z,11.40
2018-06-20T10:46:49.058Z,11.10
2018-06-20T10:47:49.002Z,11.50
2018-06-20T10:48:48.953Z,11.50
2018-06-20T10:49:48.906Z,11.70
2018-06-20T10:50:48.852Z,10.90
2018-06-20T10:51:48.806Z,12.60
2018-06-20T10:52:48.751Z,11.70
2018-06-20T10:53:48.685Z,11.40
2018-06-20T10:54:48.638Z,11.00
2018-06-20T10:55:48.589Z,10.70
2018-06-20T10:56:48.528Z,10.50
2018-06-20T10:57:48.485Z,10.70
2018-06-20T10:58:48.432Z,11.20
2018-06-20T10:59:48.373Z,10.90
2018-06-20T11:00:48.469Z,11.30
2018-06-20T11:01:48.277Z,13.60
2018-06-20T11:02:48.218Z,10.50
2018-06-20T11:03:48.169Z,10.10
2018-06-20T11:04:48.112Z,10.30
2018-06-20T11:05:48.063Z,10.40
2018-06-20T11:06:48.013Z,11.10
2018-06-20T11:07:47.961Z,10.40
2018-06-20T11:08:47.910Z,10.50
2018-06-20T11:09:47.854Z,10.60
2018-06-20T11:10:47.803Z,10.00
2018-06-20T11:11:47.748Z,10.70
2018-06-20T11:12:47.701Z,10.50
2018-06-20T11:13:47.649Z,10.10
2018-06-20T11:14:47.603Z,11.50
2018-06-20T11:15:47.545Z,11.00
2018-06-20T11:16:47.493Z,10.90
2018-06-20T11:17:47.448Z,11.30
2018-06-20T11:18:47.401Z,10.50
2018-06-20T11:19:47.338Z,11.10
2018-06-20T11:20:47.288Z,10.10
2018-06-20T11:21:47.246Z,10.00
2018-06-20T11:22:47.186Z,10.20
2018-06-20T11:23:47.140Z,9.90
2018-06-20T11:24:47.083Z,10.10
2018-06-20T11:25:47.030Z,10.40
2018-06-20T11:26:46.982Z,10.30
2018-06-20T11:27:46.933Z,9.80
2018-06-20T11:28:46.894Z,9.60
2018-06-20T11:29:46.831Z,9.80
2018-06-20T11:30:46.779Z,9.90
2018-06-20T11:31:46.721Z,8.70
2018-06-20T11:32:46.680Z,9.70
2018-06-20T11:33:46.622Z,8.80
2018-06-20T11:34:46.576Z,9.40
2018-06-20T11:35:46.527Z,8.90
2018-06-20T11:36:46.464Z,8.20
2018-06-20T11:37:46.426Z,9.30
2018-06-20T11:38:46.423Z,9.00
2018-06-20T11:39:46.322Z,9.70
2018-06-20T11:40:46.270Z,9.10
2018-06-20T11:41:46.218Z,8.60
2018-06-20T11:42:46.163Z,9.50
2018-06-20T11:43:46.118Z,9.70
2018-06-20T11:44:46.061Z,10.30
2018-06-20T11:45:46.018Z,9.80
2018-06-20T11:46:45.966Z,9.70
2018-06-20T11:47:45.905Z,9.10
2018-06-20T11:48:45.859Z,9.20
2018-06-20T11:49:45.811Z,9.00
2018-06-20T11:50:45.759Z,8.50
2018-06-20T11:51:45.708Z,9.10
2018-06-20T11:52:45.660Z,8.30
2018-06-20T11:53:45.606Z,8.50
2018-06-20T11:54:45.548Z,8.40
2018-06-20T11:55:45.502Z,9.00
2018-06-20T11:56:45.447Z,9.00
2018-06-20T11:57:45.403Z,9.40
2018-06-20T11:58:45.362Z,8.80
2018-06-20T11:59:45.300Z,9.10
2018-06-20T12:00:45.261Z,9.30
2018-06-20T12:01:45.254Z,9.20
2018-06-20T12:02:45.149Z,8.90
2018-06-20T12:03:45.092Z,8.30
2018-06-20T12:04:45.039Z,8.60
2018-06-20T12:05:44.988Z,8.80
2018-06-20T12:06:44.933Z,8.80
2018-06-20T12:07:44.880Z,8.80
2018-06-20T12:08:44.831Z,8.20
2018-06-20T12:09:44.784Z,8.90
2018-06-20T12:10:44.729Z,8.80
2018-06-20T12:11:44.684Z,9.60
2018-06-20T12:12:44.656Z,9.30
2018-06-20T12:13:44.577Z,8.70
2018-06-20T12:14:44.546Z,9.20
2018-06-20T12:15:44.466Z,8.40
2018-06-20T12:16:44.422Z,8.80
2018-06-20T12:17:44.385Z,9.00
2018-06-20T12:18:44.326Z,8.80
2018-06-20T12:19:44.257Z,8.40
2018-06-20T12:20:44.283Z,8.10
2018-06-20T12:21:44.149Z,8.60
2018-06-20T12:22:44.129Z,8.40
2018-06-20T12:23:44.060Z,8.00
2018-06-20T12:24:44.001Z,8.00
2018-06-20T12:25:43.960Z,8.60
2018-06-20T12:26:43.892Z,8.50
2018-06-20T12:27:43.834Z,8.20
2018-06-20T12:28:43.780Z,8.10
2018-06-20T12:29:43.734Z,7.40
2018-06-20T12:30:43.680Z,8.80
2018-06-20T12:31:43.648Z,7.70
2018-06-20T12:32:43.581Z,7.40
2018-06-20T12:33:43.573Z,7.50
2018-06-20T12:34:43.490Z,7.60
2018-06-20T12:35:43.419Z,7.20
2018-06-20T12:36:43.417Z,8.20
2018-06-20T12:37:43.312Z,8.30
2018-06-20T12:38:43.285Z,7.10
2018-06-20T12:39:43.214Z,7.30
2018-06-20T12:40:43.154Z,6.60
2018-06-20T12:41:43.114Z,7.30
2018-06-20T12:42:43.063Z,7.40
2018-06-20T12:43:43.022Z,7.20
2018-06-20T12:44:42.993Z,6.70
2018-06-20T12:45:42.924Z,6.60
2018-06-20T12:46:42.882Z,6.70
2018-06-20T12:47:42.807Z,7.20
2018-06-20T12:48:42.783Z,6.70
2018-06-20T12:49:42.706Z,7.20
2018-06-20T12:50:42.663Z,7.00
2018-06-20T12:51:42.608Z,6.70
2018-06-20T12:52:42.558Z,6.70
2018-06-20T12:53:42.522Z,7.10
2018-06-20T12:54:42.482Z,6.70
2018-06-20T12:55:42.413Z,7.10
2018-06-20T12:56:42.362Z,6.90
2018-06-20T12:57:42.323Z,7.30
2018-06-20T12:58:42.260Z,7.20
2018-06-20T12:59:42.219Z,8.00
2018-06-20T13:00:42.162Z,7.90
2018-06-20T13:01:42.118Z,7.40
2018-06-20T13:02:42.070Z,6.80
2018-06-20T13:03:42.052Z,7.00
2018-06-20T13:04:41.965Z,7.30
2018-06-20T13:05:41.913Z,7.30
2018-06-20T13:06:41.893Z,7.30
2018-06-20T13:07:41.816Z,7.30
2018-06-20T13:08:41.762Z,7.30
2018-06-20T13:09:41.714Z,6.40
2018-06-20T13:10:41.680Z,6.80